Terminal Aerodrome Forecast
Issued by NWS

Home | Current Version | Previous Version | Text Only | Print | Product List | Glossary On
Versions: 1 2 3 4 5 6 7 8 9 10 11 12 13 14 15 16 17 18 19 20
941
FTUS41 KPBZ 281935 AAA
TAFFKL
TAF AMD
KFKL 281935Z 2820/2918 VRB05KT P6SM VCTS BKN040CB
     FM282300 VRB03KT P6SM BKN040
     FM290600 00000KT 4SM BR BKN150
     FM291300 34004KT P6SM BKN100
      AMD LTD TO CLD VIS AND WIND=

USA.gov is the U.S. government's official web portal to all federal, state and local government web resources and services.